createdAt,value
2019-02-21T00:01:45.843Z,7.30
2019-02-21T00:04:25.593Z,7.33
2019-02-21T00:07:05.767Z,7.27
2019-02-21T00:09:46.210Z,7.03
2019-02-21T00:12:26.341Z,7.17
2019-02-21T00:15:06.512Z,7.10
2019-02-21T00:17:46.519Z,6.43
2019-02-21T00:20:26.744Z,7.17
2019-02-21T00:23:06.799Z,6.73
2019-02-21T00:25:47.028Z,7.77
2019-02-21T00:28:27.450Z,7.53
2019-02-21T00:31:07.517Z,6.60
2019-02-21T00:33:47.717Z,7.47
2019-02-21T00:36:27.844Z,6.70
2019-02-21T00:39:07.961Z,6.83
2019-02-21T00:41:47.977Z,6.93
2019-02-21T00:44:28.214Z,6.83
2019-02-21T00:47:08.332Z,6.90
2019-02-21T00:49:48.501Z,7.17
2019-02-21T00:52:31.319Z,7.23
2019-02-21T00:55:10.816Z,7.67
2019-02-21T00:57:51.004Z,6.80
2019-02-21T01:00:31.043Z,7.30
2019-02-21T01:03:11.627Z,7.70
2019-02-21T01:05:51.722Z,7.30
2019-02-21T01:08:31.845Z,6.90
2019-02-21T01:11:12.582Z,7.07
2019-02-21T01:13:40.272Z,6.30
2019-02-21T01:19:20.152Z,6.20
2019-02-21T01:22:07.195Z,6.00
2019-02-21T01:24:47.643Z,5.73
2019-02-21T01:27:27.643Z,6.30
2019-02-21T01:33:06.593Z,5.53
2019-02-21T01:35:46.837Z,5.10
2019-02-21T01:38:26.636Z,5.93
2019-02-21T01:41:06.655Z,5.97
2019-02-21T01:43:46.675Z,6.17
2019-02-21T01:46:26.731Z,6.27
2019-02-21T01:49:06.578Z,6.13
2019-02-21T01:51:46.592Z,5.70
2019-02-21T01:54:26.941Z,6.50
2019-02-21T01:57:06.716Z,6.03
2019-02-21T01:59:47.096Z,5.63
2019-02-21T02:02:27.241Z,5.40
2019-02-21T02:07:51.104Z,5.10
2019-02-21T02:10:38.316Z,5.73
2019-02-21T02:13:24.705Z,6.53
2019-02-21T02:16:00.981Z,7.83
2019-02-21T02:18:41.163Z,8.43
2019-02-21T02:21:21.144Z,7.57
2019-02-21T02:24:01.229Z,7.33
2019-02-21T02:26:41.420Z,6.93
2019-02-21T02:29:21.343Z,6.20
2019-02-21T02:32:01.451Z,5.90
2019-02-21T02:34:41.713Z,6.63
2019-02-21T02:37:21.830Z,6.40
2019-02-21T02:40:01.944Z,6.50
2019-02-21T02:42:42.253Z,6.30
2019-02-21T02:45:22.318Z,6.13
2019-02-21T02:48:02.344Z,6.83
2019-02-21T02:50:42.693Z,6.07
2019-02-21T02:53:22.446Z,6.93
2019-02-21T02:56:02.510Z,6.93
2019-02-21T02:58:45.314Z,6.77
2019-02-21T03:01:34.295Z,6.23
2019-02-21T03:04:06.713Z,6.30
2019-02-21T03:06:46.549Z,5.80
2019-02-21T03:09:26.469Z,5.67
2019-02-21T03:12:06.558Z,6.93
2019-02-21T03:14:34.381Z,5.90
2019-02-21T03:17:21.412Z,6.10
2019-02-21T03:20:01.024Z,5.80
2019-02-21T03:22:41.108Z,6.10
2019-02-21T03:25:21.062Z,5.97
2019-02-21T03:28:01.142Z,6.23
2019-02-21T03:30:41.286Z,6.17
2019-02-21T03:33:21.368Z,5.77
2019-02-21T03:36:01.559Z,5.73
2019-02-21T03:38:42.090Z,6.40
2019-02-21T03:41:21.901Z,5.87
2019-02-21T03:44:02.343Z,6.07
2019-02-21T03:46:42.508Z,6.97
2019-02-21T03:49:22.575Z,5.80
2019-02-21T03:52:03.064Z,6.10
2019-02-21T03:54:42.861Z,6.07
2019-02-21T03:57:23.036Z,6.00
2019-02-21T04:00:03.125Z,6.53
2019-02-21T04:02:43.260Z,6.47
2019-02-21T04:05:23.254Z,6.50
2019-02-21T04:08:03.295Z,6.00
2019-02-21T04:10:43.342Z,5.40
2019-02-21T04:13:23.489Z,5.80
2019-02-21T04:16:03.831Z,5.57
2019-02-21T04:18:43.882Z,5.70
2019-02-21T04:21:23.921Z,5.40
2019-02-21T04:24:04.021Z,6.47
2019-02-21T04:26:44.550Z,5.50
2019-02-21T04:29:24.753Z,7.10
2019-02-21T04:32:16.142Z,6.60
2019-02-21T04:34:47.020Z,6.03
2019-02-21T04:37:27.112Z,6.30
2019-02-21T04:40:07.185Z,6.93
2019-02-21T04:42:47.293Z,6.50
2019-02-21T04:45:27.259Z,6.50
2019-02-21T04:48:08.738Z,6.53
2019-02-21T04:50:48.637Z,6.90
2019-02-21T04:53:28.906Z,7.07
2019-02-21T04:59:21.396Z,7.43
2019-02-21T05:02:01.438Z,6.97
2019-02-21T05:04:41.716Z,6.93
2019-02-21T05:07:21.920Z,7.20
2019-02-21T05:10:02.092Z,6.70
2019-02-21T05:12:42.425Z,7.40
2019-02-21T05:15:22.244Z,6.57
2019-02-21T05:18:02.537Z,6.43
2019-02-21T05:20:42.544Z,6.40
2019-02-21T05:23:22.720Z,6.00
2019-02-21T05:26:02.646Z,6.27
2019-02-21T05:28:42.744Z,6.87
2019-02-21T05:31:48.136Z,6.57
2019-02-21T05:34:35.266Z,6.33
2019-02-21T05:37:22.436Z,6.50
2019-02-21T05:40:28.905Z,6.53
2019-02-21T05:43:31.016Z,6.60
2019-02-21T05:46:32.380Z,5.90
2019-02-21T05:49:06.204Z,5.93
2019-02-21T05:51:50.767Z,6.03
2019-02-21T05:54:49.778Z,6.00
2019-02-21T05:57:49.350Z,5.77
2019-02-21T06:03:51.409Z,6.30
2019-02-21T06:09:50.069Z,6.43
2019-02-21T06:12:49.232Z,6.50
2019-02-21T06:15:37.304Z,6.10
2019-02-21T06:18:36.286Z,6.33
2019-02-21T06:24:36.586Z,6.70
2019-02-21T06:27:23.552Z,6.20
2019-02-21T06:30:26.228Z,6.20
2019-02-21T06:33:06.076Z,8.37
2019-02-21T06:35:45.963Z,6.77
2019-02-21T06:38:26.308Z,11.50
2019-02-21T06:41:07.630Z,6.90
2019-02-21T06:43:47.782Z,8.37
2019-02-21T06:46:28.169Z,6.70
2019-02-21T06:49:07.945Z,8.97
2019-02-21T06:51:47.956Z,10.10
2019-02-21T06:54:28.269Z,9.47
2019-02-21T06:57:08.057Z,8.53
2019-02-21T06:59:48.169Z,6.73
2019-02-21T07:02:28.338Z,5.60
2019-02-21T07:05:08.624Z,5.73
2019-02-21T07:07:36.232Z,6.00
2019-02-21T07:13:26.442Z,6.03
2019-02-21T07:16:01.733Z,5.67
2019-02-21T07:18:42.069Z,5.57
2019-02-21T07:21:22.041Z,5.37
2019-02-21T07:24:02.226Z,5.50
2019-02-21T07:26:42.885Z,5.40
2019-02-21T07:29:22.638Z,6.00
2019-02-21T07:32:02.988Z,5.93
2019-02-21T07:37:42.434Z,6.10
2019-02-21T07:40:22.056Z,6.17
2019-02-21T07:43:02.041Z,6.77
2019-02-21T07:45:42.562Z,7.20
2019-02-21T07:48:22.436Z,6.60
2019-02-21T07:51:02.785Z,6.20
2019-02-21T07:53:43.069Z,7.87
2019-02-21T07:56:23.413Z,7.03
2019-02-21T07:59:03.418Z,10.17
2019-02-21T08:01:43.559Z,10.40
2019-02-21T08:04:23.652Z,10.70
2019-02-21T08:07:03.771Z,12.17
2019-02-21T08:09:44.059Z,9.97
2019-02-21T08:12:24.163Z,9.60
2019-02-21T08:15:04.235Z,7.80
2019-02-21T08:17:31.845Z,6.63
2019-02-21T08:20:18.904Z,6.47
2019-02-21T08:22:59.093Z,14.67
2019-02-21T08:25:39.364Z,14.80
2019-02-21T08:28:19.555Z,14.73
2019-02-21T08:31:00.645Z,14.03
2019-02-21T08:34:04.273Z,8.63
2019-02-21T08:36:45.460Z,6.80
2019-02-21T08:39:26.379Z,6.03
2019-02-21T08:42:07.538Z,6.03
2019-02-21T08:44:47.711Z,5.50
2019-02-21T08:47:27.966Z,5.93
2019-02-21T08:50:07.824Z,5.50
2019-02-21T08:52:48.034Z,6.37
2019-02-21T08:55:28.163Z,8.40
2019-02-21T08:58:08.146Z,11.40
2019-02-21T09:00:48.145Z,9.13
2019-02-21T09:03:28.391Z,7.40
2019-02-21T09:06:08.612Z,6.53
2019-02-21T09:08:48.876Z,6.60
2019-02-21T09:11:29.176Z,5.70
2019-02-21T09:13:57.668Z,5.37
2019-02-21T09:16:44.731Z,5.67
2019-02-21T09:19:31.742Z,6.10
2019-02-21T09:22:18.756Z,6.60
2019-02-21T09:24:59.205Z,6.00
2019-02-21T09:27:39.930Z,5.30
2019-02-21T09:30:19.806Z,5.70
2019-02-21T09:32:59.814Z,5.20
2019-02-21T09:35:39.907Z,5.43
2019-02-21T09:38:20.349Z,5.20
2019-02-21T09:41:00.513Z,6.03
2019-02-21T09:43:40.481Z,5.87
2019-02-21T09:46:22.071Z,4.97
2019-02-21T09:49:03.052Z,5.10
2019-02-21T09:51:42.921Z,5.27
2019-02-21T09:54:22.942Z,5.67
2019-02-21T10:00:14.720Z,5.40
2019-02-21T10:02:56.716Z,5.70
2019-02-21T10:05:36.545Z,5.50
2019-02-21T10:08:16.661Z,5.00
2019-02-21T10:10:56.642Z,5.10
2019-02-21T10:13:36.822Z,5.60
2019-02-21T10:16:16.759Z,5.10
2019-02-21T10:18:56.623Z,4.90
2019-02-21T10:21:36.833Z,5.57
2019-02-21T10:24:16.967Z,5.23
2019-02-21T10:26:57.192Z,5.47
2019-02-21T10:29:37.364Z,6.50
2019-02-21T10:32:17.605Z,6.20
2019-02-21T10:34:57.641Z,6.20
2019-02-21T10:37:37.864Z,11.77
2019-02-21T10:40:17.995Z,8.27
2019-02-21T10:42:58.176Z,8.50
2019-02-21T10:45:47.442Z,13.13
2019-02-21T10:48:20.186Z,14.13
2019-02-21T10:51:00.409Z,17.87
2019-02-21T10:53:40.397Z,17.07
2019-02-21T10:56:20.377Z,16.17
2019-02-21T10:59:00.287Z,16.10
2019-02-21T11:01:40.452Z,17.50
2019-02-21T11:04:20.542Z,17.57
2019-02-21T11:06:48.211Z,19.23
2019-02-21T11:09:35.236Z,20.35
2019-02-21T11:12:22.270Z,20.27
2019-02-21T11:15:02.558Z,20.70
2019-02-21T11:17:42.515Z,20.92
2019-02-21T11:20:22.434Z,20.95
2019-02-21T11:23:02.496Z,20.80
2019-02-21T11:25:42.444Z,20.43
2019-02-21T11:28:22.314Z,19.57
2019-02-21T11:30:49.943Z,21.57
2019-02-21T11:33:36.970Z,19.80
2019-02-21T11:36:24.383Z,19.57
2019-02-21T11:39:04.585Z,19.70
2019-02-21T11:41:42.803Z,20.30
2019-02-21T11:44:22.389Z,18.73
2019-02-21T11:47:02.480Z,18.67
2019-02-21T11:49:42.946Z,17.73
2019-02-21T11:52:22.757Z,18.82
2019-02-21T11:55:02.774Z,17.37
2019-02-21T11:57:31.248Z,18.15
2019-02-21T11:59:58.828Z,17.40
2019-02-21T12:02:26.500Z,16.07
2019-02-21T12:04:54.116Z,16.60
2019-02-21T12:07:21.749Z,16.20
2019-02-21T12:09:49.360Z,17.32
2019-02-21T12:12:17.096Z,15.88
2019-02-21T12:14:45.507Z,15.15
2019-02-21T12:17:13.131Z,15.60
2019-02-21T12:19:40.700Z,16.25
2019-02-21T12:22:08.291Z,16.42
2019-02-21T12:24:35.916Z,15.45
2019-02-21T12:27:03.597Z,16.07
2019-02-21T12:29:31.225Z,17.57
2019-02-21T12:32:18.213Z,17.65
2019-02-21T12:34:57.985Z,17.57
2019-02-21T12:37:37.770Z,16.97
2019-02-21T12:40:18.164Z,17.27
2019-02-21T12:42:58.144Z,16.62
2019-02-21T12:45:38.064Z,16.57
2019-02-21T12:48:18.180Z,17.25
2019-02-21T12:50:58.230Z,17.70
2019-02-21T12:53:38.709Z,16.17
2019-02-21T12:56:18.702Z,17.80
2019-02-21T12:58:58.577Z,16.05
2019-02-21T13:01:38.633Z,16.85
2019-02-21T13:04:19.047Z,15.98
2019-02-21T13:06:58.929Z,17.10
2019-02-21T13:09:39.007Z,17.98
2019-02-21T13:12:18.834Z,18.05
2019-02-21T13:14:58.944Z,18.60
2019-02-21T13:17:39.068Z,17.42
2019-02-21T13:20:19.291Z,16.45
2019-02-21T13:22:59.312Z,16.73
2019-02-21T13:25:26.988Z,16.48
2019-02-21T13:28:14.036Z,16.60
2019-02-21T13:31:01.047Z,14.43
2019-02-21T13:33:41.026Z,14.50
2019-02-21T13:36:20.800Z,14.65
2019-02-21T13:39:01.345Z,14.18
2019-02-21T13:41:41.087Z,13.72
2019-02-21T13:44:21.253Z,13.32
2019-02-21T13:46:48.905Z,12.40
2019-02-21T13:49:36.278Z,12.33
2019-02-21T13:52:23.360Z,12.45
2019-02-21T13:55:03.284Z,12.63
2019-02-21T13:57:43.823Z,11.75
2019-02-21T14:00:23.637Z,10.18
2019-02-21T14:03:04.703Z,11.30
2019-02-21T14:05:45.014Z,12.07
2019-02-21T14:08:25.357Z,12.00
2019-02-21T14:11:06.072Z,12.30
2019-02-21T14:13:46.095Z,11.48
2019-02-21T14:16:15.561Z,11.70
2019-02-21T14:19:02.576Z,12.20
2019-02-21T14:21:49.672Z,11.53
2019-02-21T14:24:17.532Z,11.18
2019-02-21T14:27:04.569Z,11.88
2019-02-21T14:29:51.577Z,12.35
2019-02-21T14:32:19.276Z,11.48
2019-02-21T14:35:06.865Z,12.20
2019-02-21T14:37:47.293Z,12.05
2019-02-21T14:40:27.137Z,12.20
2019-02-21T14:43:07.392Z,12.45
2019-02-21T14:45:47.354Z,12.82
2019-02-21T14:48:27.705Z,11.35
2019-02-21T14:51:07.412Z,12.43
2019-02-21T14:53:47.758Z,14.38
2019-02-21T14:56:27.826Z,13.38
2019-02-21T14:59:07.901Z,14.00
2019-02-21T15:01:48.091Z,13.18
2019-02-21T15:04:28.188Z,13.75
2019-02-21T15:07:09.001Z,14.10
2019-02-21T15:09:49.172Z,13.60
2019-02-21T15:12:29.554Z,14.15
2019-02-21T15:15:09.709Z,13.70
2019-02-21T15:17:49.840Z,13.53
2019-02-21T15:20:36.978Z,13.95
2019-02-21T15:23:01.634Z,14.45
2019-02-21T15:25:48.688Z,14.73
2019-02-21T15:28:35.718Z,14.07
2019-02-21T15:31:16.268Z,14.05
2019-02-21T15:33:56.356Z,13.62
2019-02-21T15:36:38.556Z,13.75
2019-02-21T15:39:18.795Z,14.50
2019-02-21T15:41:58.790Z,13.85
2019-02-21T15:44:39.035Z,14.40
2019-02-21T15:47:19.180Z,16.15
2019-02-21T15:49:59.435Z,16.48
2019-02-21T15:52:39.636Z,17.30
2019-02-21T15:55:19.877Z,16.90
2019-02-21T15:58:03.880Z,17.47
2019-02-21T16:00:42.337Z,17.83
2019-02-21T16:03:22.184Z,17.43
2019-02-21T16:09:15.416Z,16.07
2019-02-21T16:11:46.093Z,15.40
2019-02-21T16:14:26.581Z,14.53
2019-02-21T16:17:06.131Z,12.40
2019-02-21T16:19:46.129Z,12.70
2019-02-21T16:22:26.341Z,13.27
2019-02-21T16:25:06.455Z,13.63
2019-02-21T16:27:46.513Z,13.73
2019-02-21T16:30:27.126Z,13.27
2019-02-21T16:33:06.846Z,12.80
2019-02-21T16:35:47.353Z,10.10
2019-02-21T16:38:27.140Z,12.73
2019-02-21T16:44:07.124Z,11.50
2019-02-21T16:46:47.181Z,10.63
2019-02-21T16:49:27.628Z,9.20
2019-02-21T16:52:07.853Z,8.20
2019-02-21T16:54:47.753Z,8.60
2019-02-21T16:57:27.804Z,8.43
2019-02-21T17:00:07.675Z,8.03
2019-02-21T17:02:47.850Z,8.60
2019-02-21T17:05:28.430Z,8.53
2019-02-21T17:08:09.784Z,8.27
2019-02-21T17:10:50.210Z,8.33
2019-02-21T17:13:30.154Z,7.33
2019-02-21T17:16:10.170Z,7.27
2019-02-21T17:18:50.427Z,7.37
2019-02-21T17:21:30.930Z,9.70
2019-02-21T17:24:10.813Z,9.47
2019-02-21T17:26:50.808Z,9.90
2019-02-21T17:29:28.956Z,10.70
2019-02-21T17:32:09.483Z,11.73
2019-02-21T17:34:49.704Z,11.40
2019-02-21T17:37:29.657Z,9.87
2019-02-21T17:40:09.845Z,8.10
2019-02-21T17:42:49.879Z,7.60
2019-02-21T17:45:30.421Z,7.23
2019-02-21T17:47:58.233Z,8.63
2019-02-21T17:50:45.288Z,9.67
2019-02-21T17:53:32.358Z,8.70
2019-02-21T17:56:19.741Z,7.40
2019-02-21T17:58:59.977Z,6.50
2019-02-21T18:01:40.011Z,6.83
2019-02-21T18:04:20.161Z,6.40
2019-02-21T18:09:58.585Z,6.73
2019-02-21T18:12:38.709Z,7.23
2019-02-21T18:15:18.894Z,7.67
2019-02-21T18:17:59.189Z,7.10
2019-02-21T18:20:39.155Z,7.03
2019-02-21T18:23:19.304Z,6.87
2019-02-21T18:25:59.499Z,6.97
2019-02-21T18:28:39.493Z,7.10
2019-02-21T18:31:19.778Z,7.30
2019-02-21T18:34:00.043Z,8.33
2019-02-21T18:36:40.236Z,7.57
2019-02-21T18:39:20.306Z,8.03
2019-02-21T18:41:48.403Z,7.23
2019-02-21T18:44:35.442Z,7.27
2019-02-21T18:47:22.514Z,7.73
2019-02-21T18:50:02.158Z,7.83
2019-02-21T18:52:42.499Z,7.57
2019-02-21T18:55:22.494Z,8.40
2019-02-21T18:57:50.435Z,7.80
2019-02-21T19:00:37.478Z,7.77
2019-02-21T19:03:24.655Z,7.77
2019-02-21T19:06:02.852Z,7.80
2019-02-21T19:08:49.877Z,8.00
2019-02-21T19:11:29.568Z,6.73
2019-02-21T19:14:09.789Z,7.23
2019-02-21T19:16:50.075Z,8.00
2019-02-21T19:19:31.105Z,7.67
2019-02-21T19:22:11.403Z,6.97
2019-02-21T19:24:51.547Z,7.50
2019-02-21T19:27:37.161Z,7.67
2019-02-21T19:30:14.600Z,7.03
2019-02-21T19:32:54.965Z,8.10
2019-02-21T19:35:35.220Z,7.40
2019-02-21T19:38:15.313Z,7.60
2019-02-21T19:40:55.592Z,7.87
2019-02-21T19:43:35.983Z,7.37
2019-02-21T19:46:16.249Z,6.57
2019-02-21T19:49:03.416Z,7.17
2019-02-21T19:51:50.558Z,6.97
2019-02-21T19:54:30.896Z,6.70
2019-02-21T19:57:11.355Z,6.10
2019-02-21T19:59:52.487Z,6.70
2019-02-21T20:02:32.348Z,7.00
2019-02-21T20:05:13.774Z,6.03
2019-02-21T20:07:53.651Z,6.43
2019-02-21T20:10:33.941Z,6.20
2019-02-21T20:13:14.696Z,6.10
2019-02-21T20:15:54.959Z,5.90
2019-02-21T20:18:35.165Z,6.57
2019-02-21T20:21:15.106Z,6.37
2019-02-21T20:23:55.262Z,6.40
2019-02-21T20:26:35.307Z,6.17
2019-02-21T20:29:15.521Z,6.90
2019-02-21T20:31:55.895Z,6.67
2019-02-21T20:34:23.752Z,6.60
2019-02-21T20:37:10.879Z,6.57
2019-02-21T20:39:58.011Z,6.73
2019-02-21T20:42:40.648Z,7.27
2019-02-21T20:45:21.069Z,6.30
2019-02-21T20:48:01.340Z,6.57
2019-02-21T20:50:41.308Z,6.33
2019-02-21T20:53:21.299Z,6.83
2019-02-21T20:56:01.505Z,7.13
2019-02-21T20:58:41.684Z,7.23
2019-02-21T21:04:20.161Z,6.00
2019-02-21T21:07:00.845Z,6.67
2019-02-21T21:09:29.197Z,5.93
2019-02-21T21:12:16.281Z,7.10
2019-02-21T21:15:03.321Z,5.73
2019-02-21T21:17:46.092Z,6.27
2019-02-21T21:20:26.110Z,6.00
2019-02-21T21:23:05.996Z,6.53
2019-02-21T21:25:46.101Z,7.00
2019-02-21T21:28:26.183Z,5.83
2019-02-21T21:30:53.956Z,6.70
2019-02-21T21:33:21.746Z,6.57
2019-02-21T21:36:08.789Z,6.00
2019-02-21T21:38:54.197Z,6.43
2019-02-21T21:41:30.201Z,5.90
2019-02-21T21:44:10.434Z,6.53
2019-02-21T21:46:50.645Z,6.43
2019-02-21T21:49:31.084Z,5.90
2019-02-21T21:52:11.171Z,6.10
2019-02-21T21:54:51.255Z,7.27
2019-02-21T21:57:31.109Z,6.43
2019-02-21T22:00:11.071Z,5.90
2019-02-21T22:02:51.548Z,6.17
2019-02-21T22:08:32.914Z,6.53
2019-02-21T22:11:12.962Z,6.20
2019-02-21T22:13:53.199Z,6.53
2019-02-21T22:16:33.156Z,6.00
2019-02-21T22:19:13.313Z,5.80
2019-02-21T22:21:53.832Z,6.40
2019-02-21T22:24:34.446Z,6.10
2019-02-21T22:27:02.231Z,6.67
2019-02-21T22:29:49.337Z,6.30
2019-02-21T22:32:36.410Z,5.77
2019-02-21T22:35:16.509Z,6.80
2019-02-21T22:37:56.822Z,6.43
2019-02-21T22:40:36.994Z,6.30
2019-02-21T22:43:17.146Z,5.70
2019-02-21T22:45:57.233Z,6.37
2019-02-21T22:48:46.920Z,6.40
2019-02-21T22:51:19.479Z,7.03
2019-02-21T22:54:02.403Z,6.53
2019-02-21T22:59:41.192Z,6.67
2019-02-21T23:02:21.005Z,6.47
2019-02-21T23:05:01.361Z,6.13
2019-02-21T23:07:41.397Z,6.60
2019-02-21T23:10:21.283Z,6.40
2019-02-21T23:13:01.568Z,6.40
2019-02-21T23:15:41.899Z,6.67
2019-02-21T23:18:21.556Z,5.67
2019-02-21T23:21:01.649Z,6.23
2019-02-21T23:23:41.769Z,6.73
2019-02-21T23:26:22.260Z,6.07
2019-02-21T23:29:02.153Z,6.17
2019-02-21T23:31:42.457Z,5.97
2019-02-21T23:37:19.579Z,6.47
2019-02-21T23:39:59.745Z,6.13
2019-02-21T23:42:40.208Z,6.73
2019-02-21T23:45:20.191Z,6.13
2019-02-21T23:48:00.252Z,6.53
2019-02-21T23:50:27.975Z,7.10
2019-02-21T23:53:15.299Z,6.33
2019-02-21T23:56:02.374Z,6.70
2019-02-21T23:58:42.732Z,5.87
